Terminal Aerodrome Forecast
Issued by NWS

Home | Current Version | Previous Version | Text Only | Print | Product List | Glossary On
Versions: 1 2 3 4 5 6 7 8 9 10 11 12 13 14 15 16 17 18 19 20 21 22 23 24 25 26 27 28 29 30 31 32 33 34 35 36 37 38 39 40 41
851
FTUS45 KGJT 291939 AAA
TAFDRO
TAF AMD
KDRO 291939Z 2920/3018 31010G17KT P6SM VCTS SCT080CB SCT250
      TEMPO 2920/2922 -TSRA
     FM292200 29009KT P6SM SCT250
     FM300200 23009KT P6SM SCT250
     FM300400 18008KT P6SM SCT250
     FM301500 11004KT P6SM SCT250=

USA.gov is the U.S. government's official web portal to all federal, state and local government web resources and services.